sensor_id;sensor_type;location;lat;lon;timestamp;P1;durP1;ratioP1;P2;durP2;ratioP2
13943;SDS011;7044;53.286;8.534;2024-01-11T00:00:09;26.03;;;12.73;;
13943;SDS011;7044;53.286;8.534;2024-01-11T00:02:36;23.27;;;11.07;;
13943;SDS011;7044;53.286;8.534;2024-01-11T00:05:05;27.23;;;13.17;;
13943;SDS011;7044;53.286;8.534;2024-01-11T00:07:33;28.53;;;14.03;;
13943;SDS011;7044;53.286;8.534;2024-01-11T00:10:00;27.13;;;14.67;;
13943;SDS011;7044;53.286;8.534;2024-01-11T00:12:28;27.00;;;13.13;;
13943;SDS011;7044;53.286;8.534;2024-01-11T00:14:56;28.57;;;13.90;;
13943;SDS011;7044;53.286;8.534;2024-01-11T00:17:24;24.90;;;11.93;;
13943;SDS011;7044;53.286;8.534;2024-01-11T00:19:51;29.43;;;14.20;;
13943;SDS011;7044;53.286;8.534;2024-01-11T00:22:19;27.57;;;13.30;;
13943;SDS011;7044;53.286;8.534;2024-01-11T00:24:46;25.43;;;12.93;;
13943;SDS011;7044;53.286;8.534;2024-01-11T00:27:13;29.23;;;13.63;;
13943;SDS011;7044;53.286;8.534;2024-01-11T00:29:40;21.37;;;13.00;;
13943;SDS011;7044;53.286;8.534;2024-01-11T00:32:07;23.00;;;11.83;;
13943;SDS011;7044;53.286;8.534;2024-01-11T00:34:34;26.00;;;12.30;;
13943;SDS011;7044;53.286;8.534;2024-01-11T00:37:01;25.07;;;13.43;;
13943;SDS011;7044;53.286;8.534;2024-01-11T00:39:30;25.03;;;13.40;;
13943;SDS011;7044;53.286;8.534;2024-01-11T00:41:57;21.43;;;11.83;;
13943;SDS011;7044;53.286;8.534;2024-01-11T00:44:23;23.77;;;11.77;;
13943;SDS011;7044;53.286;8.534;2024-01-11T00:46:50;25.57;;;11.97;;
13943;SDS011;7044;53.286;8.534;2024-01-11T00:49:17;25.90;;;13.33;;
13943;SDS011;7044;53.286;8.534;2024-01-11T00:51:44;26.20;;;12.27;;
13943;SDS011;7044;53.286;8.534;2024-01-11T00:54:11;25.67;;;12.13;;
13943;SDS011;7044;53.286;8.534;2024-01-11T00:56:39;26.93;;;11.30;;
13943;SDS011;7044;53.286;8.534;2024-01-11T00:59:06;24.97;;;12.60;;
13943;SDS011;7044;53.286;8.534;2024-01-11T01:01:33;25.73;;;12.87;;
13943;SDS011;7044;53.286;8.534;2024-01-11T01:04:00;21.77;;;11.90;;
13943;SDS011;7044;53.286;8.534;2024-01-11T01:06:27;23.00;;;11.90;;
13943;SDS011;7044;53.286;8.534;2024-01-11T01:08:55;26.97;;;11.93;;
13943;SDS011;7044;53.286;8.534;2024-01-11T01:11:22;22.67;;;12.00;;
13943;SDS011;7044;53.286;8.534;2024-01-11T01:13:50;28.30;;;12.30;;
13943;SDS011;7044;53.286;8.534;2024-01-11T01:16:17;33.70;;;12.57;;
13943;SDS011;7044;53.286;8.534;2024-01-11T01:18:44;23.70;;;11.63;;
13943;SDS011;7044;53.286;8.534;2024-01-11T01:21:11;25.33;;;11.50;;
13943;SDS011;7044;53.286;8.534;2024-01-11T01:23:37;21.67;;;11.83;;
13943;SDS011;7044;53.286;8.534;2024-01-11T01:26:05;19.07;;;10.77;;
13943;SDS011;7044;53.286;8.534;2024-01-11T01:28:32;22.00;;;11.67;;
13943;SDS011;7044;53.286;8.534;2024-01-11T01:31:01;25.47;;;12.13;;
13943;SDS011;7044;53.286;8.534;2024-01-11T01:33:27;23.23;;;11.83;;
13943;SDS011;7044;53.286;8.534;2024-01-11T01:35:54;25.43;;;11.70;;
13943;SDS011;7044;53.286;8.534;2024-01-11T01:38:21;26.10;;;12.03;;
13943;SDS011;7044;53.286;8.534;2024-01-11T01:40:48;23.97;;;12.03;;
13943;SDS011;7044;53.286;8.534;2024-01-11T01:43:15;24.40;;;11.57;;
13943;SDS011;7044;53.286;8.534;2024-01-11T01:45:42;21.43;;;12.43;;
13943;SDS011;7044;53.286;8.534;2024-01-11T01:48:10;23.33;;;12.00;;
13943;SDS011;7044;53.286;8.534;2024-01-11T01:50:37;22.17;;;10.90;;
13943;SDS011;7044;53.286;8.534;2024-01-11T01:53:04;22.70;;;11.13;;
13943;SDS011;7044;53.286;8.534;2024-01-11T01:55:33;18.63;;;9.40;;
13943;SDS011;7044;53.286;8.534;2024-01-11T01:58:00;18.50;;;9.07;;
13943;SDS011;7044;53.286;8.534;2024-01-11T02:00:29;19.80;;;9.60;;
13943;SDS011;7044;53.286;8.534;2024-01-11T02:02:56;23.10;;;11.07;;
13943;SDS011;7044;53.286;8.534;2024-01-11T02:05:25;20.37;;;10.67;;
13943;SDS011;7044;53.286;8.534;2024-01-11T02:07:52;21.50;;;10.20;;
13943;SDS011;7044;53.286;8.534;2024-01-11T02:10:19;19.33;;;11.00;;
13943;SDS011;7044;53.286;8.534;2024-01-11T02:12:46;19.10;;;10.07;;
13943;SDS011;7044;53.286;8.534;2024-01-11T02:15:14;23.80;;;11.27;;
13943;SDS011;7044;53.286;8.534;2024-01-11T02:17:41;22.10;;;11.63;;
13943;SDS011;7044;53.286;8.534;2024-01-11T02:20:08;17.97;;;9.73;;
13943;SDS011;7044;53.286;8.534;2024-01-11T02:22:38;21.20;;;10.20;;
13943;SDS011;7044;53.286;8.534;2024-01-11T02:25:08;19.77;;;9.87;;
13943;SDS011;7044;53.286;8.534;2024-01-11T02:27:44;15.70;;;8.83;;
13943;SDS011;7044;53.286;8.534;2024-01-11T02:30:12;18.20;;;9.50;;
13943;SDS011;7044;53.286;8.534;2024-01-11T02:32:40;21.47;;;9.27;;
13943;SDS011;7044;53.286;8.534;2024-01-11T02:35:09;20.20;;;9.87;;
13943;SDS011;7044;53.286;8.534;2024-01-11T02:37:36;19.30;;;10.17;;
13943;SDS011;7044;53.286;8.534;2024-01-11T02:40:05;17.13;;;9.67;;
13943;SDS011;7044;53.286;8.534;2024-01-11T02:42:35;18.20;;;8.90;;
13943;SDS011;7044;53.286;8.534;2024-01-11T02:45:02;21.07;;;8.37;;
13943;SDS011;7044;53.286;8.534;2024-01-11T02:47:30;20.07;;;10.10;;
13943;SDS011;7044;53.286;8.534;2024-01-11T02:49:57;16.40;;;9.13;;
13943;SDS011;7044;53.286;8.534;2024-01-11T02:52:24;17.30;;;9.57;;
13943;SDS011;7044;53.286;8.534;2024-01-11T02:54:50;21.13;;;10.17;;
13943;SDS011;7044;53.286;8.534;2024-01-11T02:57:17;15.70;;;7.93;;
13943;SDS011;7044;53.286;8.534;2024-01-11T02:59:45;22.17;;;9.57;;
13943;SDS011;7044;53.286;8.534;2024-01-11T03:02:12;19.07;;;10.10;;
13943;SDS011;7044;53.286;8.534;2024-01-11T03:04:39;19.13;;;8.33;;
13943;SDS011;7044;53.286;8.534;2024-01-11T03:07:06;20.97;;;9.23;;
13943;SDS011;7044;53.286;8.534;2024-01-11T03:09:33;16.27;;;8.50;;
13943;SDS011;7044;53.286;8.534;2024-01-11T03:12:00;21.30;;;8.73;;
13943;SDS011;7044;53.286;8.534;2024-01-11T03:14:27;16.27;;;7.90;;
13943;SDS011;7044;53.286;8.534;2024-01-11T03:16:55;18.00;;;8.27;;
13943;SDS011;7044;53.286;8.534;2024-01-11T03:19:22;18.20;;;8.90;;
13943;SDS011;7044;53.286;8.534;2024-01-11T03:21:49;20.40;;;9.63;;
13943;SDS011;7044;53.286;8.534;2024-01-11T03:24:16;16.97;;;9.07;;
13943;SDS011;7044;53.286;8.534;2024-01-11T03:26:43;21.50;;;8.77;;
13943;SDS011;7044;53.286;8.534;2024-01-11T03:29:10;13.10;;;8.27;;
13943;SDS011;7044;53.286;8.534;2024-01-11T03:31:36;17.53;;;9.27;;
13943;SDS011;7044;53.286;8.534;2024-01-11T03:34:07;18.67;;;9.03;;
13943;SDS011;7044;53.286;8.534;2024-01-11T03:36:34;16.83;;;9.20;;
13943;SDS011;7044;53.286;8.534;2024-01-11T03:39:01;20.73;;;9.77;;
13943;SDS011;7044;53.286;8.534;2024-01-11T03:41:29;16.70;;;8.13;;
13943;SDS011;7044;53.286;8.534;2024-01-11T03:43:55;19.13;;;8.80;;
13943;SDS011;7044;53.286;8.534;2024-01-11T03:46:22;17.63;;;9.10;;
13943;SDS011;7044;53.286;8.534;2024-01-11T03:48:50;27.97;;;10.63;;
13943;SDS011;7044;53.286;8.534;2024-01-11T03:51:18;17.93;;;9.73;;
13943;SDS011;7044;53.286;8.534;2024-01-11T03:53:45;21.87;;;9.83;;
13943;SDS011;7044;53.286;8.534;2024-01-11T03:56:11;21.70;;;10.47;;
13943;SDS011;7044;53.286;8.534;2024-01-11T03:58:38;20.60;;;10.33;;
13943;SDS011;7044;53.286;8.534;2024-01-11T04:01:06;22.30;;;10.13;;
13943;SDS011;7044;53.286;8.534;2024-01-11T04:03:35;22.90;;;9.93;;
13943;SDS011;7044;53.286;8.534;2024-01-11T04:06:03;28.00;;;10.37;;
13943;SDS011;7044;53.286;8.534;2024-01-11T04:08:31;21.87;;;10.00;;
13943;SDS011;7044;53.286;8.534;2024-01-11T04:11:01;22.40;;;9.97;;
13943;SDS011;7044;53.286;8.534;2024-01-11T04:13:29;23.20;;;10.30;;
13943;SDS011;7044;53.286;8.534;2024-01-11T04:15:55;22.03;;;9.50;;
13943;SDS011;7044;53.286;8.534;2024-01-11T04:18:22;24.77;;;10.10;;
13943;SDS011;7044;53.286;8.534;2024-01-11T04:20:49;23.80;;;10.70;;
13943;SDS011;7044;53.286;8.534;2024-01-11T04:23:16;21.73;;;9.73;;
13943;SDS011;7044;53.286;8.534;2024-01-11T04:25:44;19.40;;;9.13;;
13943;SDS011;7044;53.286;8.534;2024-01-11T04:28:11;19.20;;;9.20;;
13943;SDS011;7044;53.286;8.534;2024-01-11T04:30:38;21.43;;;10.83;;
13943;SDS011;7044;53.286;8.534;2024-01-11T04:33:05;25.30;;;10.17;;
13943;SDS011;7044;53.286;8.534;2024-01-11T04:35:32;23.37;;;9.57;;
13943;SDS011;7044;53.286;8.534;2024-01-11T04:37:59;21.03;;;10.63;;
13943;SDS011;7044;53.286;8.534;2024-01-11T04:40:26;24.30;;;11.33;;
13943;SDS011;7044;53.286;8.534;2024-01-11T04:42:54;25.50;;;11.27;;
13943;SDS011;7044;53.286;8.534;2024-01-11T04:45:21;21.30;;;10.23;;
13943;SDS011;7044;53.286;8.534;2024-01-11T04:47:49;27.33;;;11.67;;
13943;SDS011;7044;53.286;8.534;2024-01-11T04:50:16;20.43;;;10.20;;
13943;SDS011;7044;53.286;8.534;2024-01-11T04:52:43;26.53;;;11.20;;
13943;SDS011;7044;53.286;8.534;2024-01-11T04:55:10;25.90;;;11.07;;
13943;SDS011;7044;53.286;8.534;2024-01-11T04:57:37;25.53;;;11.30;;
13943;SDS011;7044;53.286;8.534;2024-01-11T05:00:07;34.00;;;9.93;;
13943;SDS011;7044;53.286;8.534;2024-01-11T05:02:34;30.70;;;11.77;;
13943;SDS011;7044;53.286;8.534;2024-01-11T05:05:01;26.33;;;11.73;;
13943;SDS011;7044;53.286;8.534;2024-01-11T05:07:28;26.73;;;10.60;;
13943;SDS011;7044;53.286;8.534;2024-01-11T05:09:55;25.90;;;12.23;;
13943;SDS011;7044;53.286;8.534;2024-01-11T05:12:21;28.67;;;10.87;;
13943;SDS011;7044;53.286;8.534;2024-01-11T05:14:48;26.10;;;12.07;;
13943;SDS011;7044;53.286;8.534;2024-01-11T05:17:17;21.90;;;10.43;;
13943;SDS011;7044;53.286;8.534;2024-01-11T05:19:44;28.60;;;12.43;;
13943;SDS011;7044;53.286;8.534;2024-01-11T05:22:10;29.43;;;12.13;;
13943;SDS011;7044;53.286;8.534;2024-01-11T05:24:37;27.67;;;12.87;;
13943;SDS011;7044;53.286;8.534;2024-01-11T05:27:04;27.13;;;12.90;;
13943;SDS011;7044;53.286;8.534;2024-01-11T05:29:31;31.63;;;14.40;;
13943;SDS011;7044;53.286;8.534;2024-01-11T05:31:58;32.77;;;12.67;;
13943;SDS011;7044;53.286;8.534;2024-01-11T05:34:26;28.60;;;13.17;;
13943;SDS011;7044;53.286;8.534;2024-01-11T05:36:53;25.77;;;11.27;;
13943;SDS011;7044;53.286;8.534;2024-01-11T05:39:20;24.60;;;11.17;;
13943;SDS011;7044;53.286;8.534;2024-01-11T05:41:47;24.00;;;11.13;;
13943;SDS011;7044;53.286;8.534;2024-01-11T05:44:14;27.70;;;11.30;;
13943;SDS011;7044;53.286;8.534;2024-01-11T05:46:40;29.37;;;12.10;;
13943;SDS011;7044;53.286;8.534;2024-01-11T05:49:07;26.57;;;12.80;;
13943;SDS011;7044;53.286;8.534;2024-01-11T05:51:36;26.87;;;12.07;;
13943;SDS011;7044;53.286;8.534;2024-01-11T05:54:02;25.97;;;12.33;;
13943;SDS011;7044;53.286;8.534;2024-01-11T05:56:29;26.10;;;11.80;;
13943;SDS011;7044;53.286;8.534;2024-01-11T05:58:58;25.43;;;11.27;;
13943;SDS011;7044;53.286;8.534;2024-01-11T06:01:25;25.23;;;11.63;;
13943;SDS011;7044;53.286;8.534;2024-01-11T06:03:52;27.97;;;12.33;;
13943;SDS011;7044;53.286;8.534;2024-01-11T06:06:18;27.40;;;12.33;;
13943;SDS011;7044;53.286;8.534;2024-01-11T06:08:47;25.57;;;12.53;;
13943;SDS011;7044;53.286;8.534;2024-01-11T06:11:13;29.47;;;11.23;;
13943;SDS011;7044;53.286;8.534;2024-01-11T06:13:43;27.27;;;12.97;;
13943;SDS011;7044;53.286;8.534;2024-01-11T06:16:10;29.30;;;12.60;;
13943;SDS011;7044;53.286;8.534;2024-01-11T06:18:36;24.13;;;12.43;;
13943;SDS011;7044;53.286;8.534;2024-01-11T06:21:04;27.00;;;12.10;;
13943;SDS011;7044;53.286;8.534;2024-01-11T06:23:31;27.60;;;12.53;;
13943;SDS011;7044;53.286;8.534;2024-01-11T06:25:59;24.73;;;12.47;;
13943;SDS011;7044;53.286;8.534;2024-01-11T06:28:26;30.80;;;13.00;;
13943;SDS011;7044;53.286;8.534;2024-01-11T06:30:52;37.00;;;13.40;;
13943;SDS011;7044;53.286;8.534;2024-01-11T06:33:19;27.07;;;12.17;;
13943;SDS011;7044;53.286;8.534;2024-01-11T06:35:46;29.37;;;12.43;;
13943;SDS011;7044;53.286;8.534;2024-01-11T06:38:13;28.63;;;13.27;;
13943;SDS011;7044;53.286;8.534;2024-01-11T06:40:40;28.47;;;13.03;;
13943;SDS011;7044;53.286;8.534;2024-01-11T06:43:09;30.30;;;13.60;;
13943;SDS011;7044;53.286;8.534;2024-01-11T06:45:36;29.90;;;13.27;;
13943;SDS011;7044;53.286;8.534;2024-01-11T06:48:04;30.70;;;15.13;;
13943;SDS011;7044;53.286;8.534;2024-01-11T06:50:31;36.10;;;14.53;;
13943;SDS011;7044;53.286;8.534;2024-01-11T06:52:59;29.93;;;13.00;;
13943;SDS011;7044;53.286;8.534;2024-01-11T06:55:26;32.73;;;14.10;;
13943;SDS011;7044;53.286;8.534;2024-01-11T06:57:52;36.53;;;13.67;;
13943;SDS011;7044;53.286;8.534;2024-01-11T07:00:21;32.90;;;14.30;;
13943;SDS011;7044;53.286;8.534;2024-01-11T07:02:48;27.73;;;13.07;;
13943;SDS011;7044;53.286;8.534;2024-01-11T07:05:15;31.70;;;13.17;;
13943;SDS011;7044;53.286;8.534;2024-01-11T07:07:41;34.03;;;14.33;;
13943;SDS011;7044;53.286;8.534;2024-01-11T07:10:09;34.00;;;13.83;;
13943;SDS011;7044;53.286;8.534;2024-01-11T07:12:37;36.77;;;14.23;;
13943;SDS011;7044;53.286;8.534;2024-01-11T07:15:06;31.43;;;15.10;;
13943;SDS011;7044;53.286;8.534;2024-01-11T07:17:35;38.83;;;15.17;;
13943;SDS011;7044;53.286;8.534;2024-01-11T07:20:02;36.00;;;14.73;;
13943;SDS011;7044;53.286;8.534;2024-01-11T07:22:30;37.87;;;15.30;;
13943;SDS011;7044;53.286;8.534;2024-01-11T07:24:57;31.97;;;15.23;;
13943;SDS011;7044;53.286;8.534;2024-01-11T07:27:23;31.33;;;14.33;;
13943;SDS011;7044;53.286;8.534;2024-01-11T07:29:50;37.83;;;16.00;;
13943;SDS011;7044;53.286;8.534;2024-01-11T07:32:17;37.23;;;15.00;;
13943;SDS011;7044;53.286;8.534;2024-01-11T07:34:45;34.93;;;14.47;;
13943;SDS011;7044;53.286;8.534;2024-01-11T07:37:12;43.87;;;14.73;;
13943;SDS011;7044;53.286;8.534;2024-01-11T07:39:39;40.83;;;15.43;;
13943;SDS011;7044;53.286;8.534;2024-01-11T07:42:06;34.03;;;15.27;;
13943;SDS011;7044;53.286;8.534;2024-01-11T07:44:33;43.23;;;16.57;;
13943;SDS011;7044;53.286;8.534;2024-01-11T07:46:59;44.47;;;17.53;;
13943;SDS011;7044;53.286;8.534;2024-01-11T07:49:26;38.67;;;16.03;;
13943;SDS011;7044;53.286;8.534;2024-01-11T07:51:54;39.50;;;16.53;;
13943;SDS011;7044;53.286;8.534;2024-01-11T07:54:21;40.70;;;15.80;;
13943;SDS011;7044;53.286;8.534;2024-01-11T07:56:48;41.97;;;17.20;;
13943;SDS011;7044;53.286;8.534;2024-01-11T07:59:15;42.87;;;16.87;;
13943;SDS011;7044;53.286;8.534;2024-01-11T08:01:42;41.23;;;17.77;;
13943;SDS011;7044;53.286;8.534;2024-01-11T08:04:09;39.97;;;17.23;;
13943;SDS011;7044;53.286;8.534;2024-01-11T08:06:35;37.83;;;16.57;;
13943;SDS011;7044;53.286;8.534;2024-01-11T08:09:04;42.30;;;16.90;;
13943;SDS011;7044;53.286;8.534;2024-01-11T08:11:31;45.30;;;19.93;;
13943;SDS011;7044;53.286;8.534;2024-01-11T08:13:58;50.63;;;17.93;;
13943;SDS011;7044;53.286;8.534;2024-01-11T08:16:25;38.73;;;16.37;;
13943;SDS011;7044;53.286;8.534;2024-01-11T08:18:51;42.27;;;16.93;;
13943;SDS011;7044;53.286;8.534;2024-01-11T08:21:19;45.17;;;17.87;;
13943;SDS011;7044;53.286;8.534;2024-01-11T08:23:46;45.63;;;18.27;;
13943;SDS011;7044;53.286;8.534;2024-01-11T08:26:15;48.93;;;19.27;;
13943;SDS011;7044;53.286;8.534;2024-01-11T08:28:44;45.33;;;19.23;;
13943;SDS011;7044;53.286;8.534;2024-01-11T08:31:11;42.27;;;17.03;;
13943;SDS011;7044;53.286;8.534;2024-01-11T08:33:37;47.20;;;17.83;;
13943;SDS011;7044;53.286;8.534;2024-01-11T08:36:04;47.37;;;17.80;;
13943;SDS011;7044;53.286;8.534;2024-01-11T08:38:32;44.43;;;19.07;;
13943;SDS011;7044;53.286;8.534;2024-01-11T08:40:58;45.70;;;18.23;;
13943;SDS011;7044;53.286;8.534;2024-01-11T08:43:27;41.90;;;17.90;;
13943;SDS011;7044;53.286;8.534;2024-01-11T08:45:53;42.57;;;15.70;;
13943;SDS011;7044;53.286;8.534;2024-01-11T08:48:20;41.53;;;17.33;;
13943;SDS011;7044;53.286;8.534;2024-01-11T08:50:47;50.63;;;20.03;;
13943;SDS011;7044;53.286;8.534;2024-01-11T08:53:14;43.50;;;15.80;;
13943;SDS011;7044;53.286;8.534;2024-01-11T08:55:42;43.80;;;17.83;;
13943;SDS011;7044;53.286;8.534;2024-01-11T08:58:09;49.07;;;17.73;;
13943;SDS011;7044;53.286;8.534;2024-01-11T09:00:37;42.60;;;16.40;;
13943;SDS011;7044;53.286;8.534;2024-01-11T09:03:04;42.67;;;16.83;;
13943;SDS011;7044;53.286;8.534;2024-01-11T09:05:31;41.80;;;18.87;;
13943;SDS011;7044;53.286;8.534;2024-01-11T09:07:58;50.60;;;18.87;;
13943;SDS011;7044;53.286;8.534;2024-01-11T09:10:24;43.50;;;17.87;;
13943;SDS011;7044;53.286;8.534;2024-01-11T09:12:52;48.30;;;17.27;;
13943;SDS011;7044;53.286;8.534;2024-01-11T09:15:20;48.37;;;19.27;;
13943;SDS011;7044;53.286;8.534;2024-01-11T09:17:48;53.83;;;18.53;;
13943;SDS011;7044;53.286;8.534;2024-01-11T09:20:15;39.63;;;17.67;;
13943;SDS011;7044;53.286;8.534;2024-01-11T09:22:43;38.90;;;16.03;;
13943;SDS011;7044;53.286;8.534;2024-01-11T09:25:11;35.67;;;16.67;;
13943;SDS011;7044;53.286;8.534;2024-01-11T09:27:38;54.13;;;19.40;;
13943;SDS011;7044;53.286;8.534;2024-01-11T09:30:05;48.20;;;16.87;;
13943;SDS011;7044;53.286;8.534;2024-01-11T09:32:34;39.23;;;16.40;;
13943;SDS011;7044;53.286;8.534;2024-01-11T09:35:03;40.70;;;16.03;;
13943;SDS011;7044;53.286;8.534;2024-01-11T09:37:30;38.50;;;15.33;;
13943;SDS011;7044;53.286;8.534;2024-01-11T09:39:57;43.87;;;17.57;;
13943;SDS011;7044;53.286;8.534;2024-01-11T09:42:25;45.50;;;16.83;;
13943;SDS011;7044;53.286;8.534;2024-01-11T09:44:53;38.40;;;16.40;;
13943;SDS011;7044;53.286;8.534;2024-01-11T09:47:20;33.90;;;16.40;;
13943;SDS011;7044;53.286;8.534;2024-01-11T09:49:48;46.97;;;18.00;;
13943;SDS011;7044;53.286;8.534;2024-01-11T09:52:18;52.83;;;17.90;;
13943;SDS011;7044;53.286;8.534;2024-01-11T09:54:46;29.73;;;14.90;;
13943;SDS011;7044;53.286;8.534;2024-01-11T09:57:14;37.50;;;16.57;;
13943;SDS011;7044;53.286;8.534;2024-01-11T09:59:48;38.73;;;16.37;;
13943;SDS011;7044;53.286;8.534;2024-01-11T10:02:17;39.30;;;17.33;;
13943;SDS011;7044;53.286;8.534;2024-01-11T10:04:44;42.83;;;16.50;;
13943;SDS011;7044;53.286;8.534;2024-01-11T10:07:11;44.33;;;16.53;;
13943;SDS011;7044;53.286;8.534;2024-01-11T10:09:41;34.53;;;16.03;;
13943;SDS011;7044;53.286;8.534;2024-01-11T10:12:09;37.57;;;16.07;;
13943;SDS011;7044;53.286;8.534;2024-01-11T10:14:36;33.07;;;15.30;;
13943;SDS011;7044;53.286;8.534;2024-01-11T10:17:03;38.63;;;15.53;;
13943;SDS011;7044;53.286;8.534;2024-01-11T10:19:30;30.20;;;15.17;;
13943;SDS011;7044;53.286;8.534;2024-01-11T10:21:57;43.10;;;16.00;;
13943;SDS011;7044;53.286;8.534;2024-01-11T10:24:24;35.53;;;16.03;;
13943;SDS011;7044;53.286;8.534;2024-01-11T10:26:53;36.53;;;15.73;;
13943;SDS011;7044;53.286;8.534;2024-01-11T10:29:22;40.60;;;15.70;;
13943;SDS011;7044;53.286;8.534;2024-01-11T10:31:49;43.70;;;17.80;;
13943;SDS011;7044;53.286;8.534;2024-01-11T10:34:16;41.57;;;17.90;;
13943;SDS011;7044;53.286;8.534;2024-01-11T10:36:43;32.67;;;14.30;;
13943;SDS011;7044;53.286;8.534;2024-01-11T10:39:10;38.77;;;17.33;;
13943;SDS011;7044;53.286;8.534;2024-01-11T10:41:39;39.47;;;16.37;;
13943;SDS011;7044;53.286;8.534;2024-01-11T10:44:10;35.90;;;15.30;;
13943;SDS011;7044;53.286;8.534;2024-01-11T10:46:44;33.17;;;15.23;;
13943;SDS011;7044;53.286;8.534;2024-01-11T10:49:13;35.43;;;15.40;;
13943;SDS011;7044;53.286;8.534;2024-01-11T10:51:43;38.27;;;16.67;;
13943;SDS011;7044;53.286;8.534;2024-01-11T10:54:16;30.53;;;14.53;;
13943;SDS011;7044;53.286;8.534;2024-01-11T10:56:44;35.20;;;14.93;;
13943;SDS011;7044;53.286;8.534;2024-01-11T10:59:14;32.13;;;14.90;;
13943;SDS011;7044;53.286;8.534;2024-01-11T11:01:42;36.20;;;15.63;;
13943;SDS011;7044;53.286;8.534;2024-01-11T11:04:10;30.00;;;14.80;;
13943;SDS011;7044;53.286;8.534;2024-01-11T11:06:38;30.37;;;14.73;;
13943;SDS011;7044;53.286;8.534;2024-01-11T11:09:05;27.17;;;14.10;;
13943;SDS011;7044;53.286;8.534;2024-01-11T11:11:33;38.50;;;15.00;;
13943;SDS011;7044;53.286;8.534;2024-01-11T11:14:01;27.30;;;13.70;;
13943;SDS011;7044;53.286;8.534;2024-01-11T11:16:31;32.20;;;15.10;;
13943;SDS011;7044;53.286;8.534;2024-01-11T11:18:58;31.07;;;13.63;;
13943;SDS011;7044;53.286;8.534;2024-01-11T11:21:25;30.10;;;14.17;;
13943;SDS011;7044;53.286;8.534;2024-01-11T11:23:53;32.83;;;13.97;;
13943;SDS011;7044;53.286;8.534;2024-01-11T11:26:21;33.23;;;13.83;;
13943;SDS011;7044;53.286;8.534;2024-01-11T11:28:48;29.83;;;13.00;;
13943;SDS011;7044;53.286;8.534;2024-01-11T11:31:27;28.93;;;13.47;;
13943;SDS011;7044;53.286;8.534;2024-01-11T11:34:03;30.63;;;12.73;;
13943;SDS011;7044;53.286;8.534;2024-01-11T11:36:31;27.40;;;13.17;;
13943;SDS011;7044;53.286;8.534;2024-01-11T11:38:59;30.70;;;13.43;;
13943;SDS011;7044;53.286;8.534;2024-01-11T11:41:27;35.47;;;12.90;;
13943;SDS011;7044;53.286;8.534;2024-01-11T11:44:00;29.37;;;12.57;;
13943;SDS011;7044;53.286;8.534;2024-01-11T11:46:27;24.90;;;11.73;;
13943;SDS011;7044;53.286;8.534;2024-01-11T11:48:55;26.63;;;11.57;;
13943;SDS011;7044;53.286;8.534;2024-01-11T11:51:23;25.33;;;11.93;;
13943;SDS011;7044;53.286;8.534;2024-01-11T11:53:51;24.10;;;10.60;;
13943;SDS011;7044;53.286;8.534;2024-01-11T11:56:19;25.63;;;12.30;;
13943;SDS011;7044;53.286;8.534;2024-01-11T11:58:47;27.17;;;11.87;;
13943;SDS011;7044;53.286;8.534;2024-01-11T12:01:17;24.03;;;10.90;;
13943;SDS011;7044;53.286;8.534;2024-01-11T12:03:44;23.53;;;12.00;;
13943;SDS011;7044;53.286;8.534;2024-01-11T12:06:15;24.47;;;11.43;;
13943;SDS011;7044;53.286;8.534;2024-01-11T12:08:43;21.53;;;11.77;;
13943;SDS011;7044;53.286;8.534;2024-01-11T12:11:14;24.73;;;11.47;;
13943;SDS011;7044;53.286;8.534;2024-01-11T12:13:41;27.43;;;12.30;;
13943;SDS011;7044;53.286;8.534;2024-01-11T12:16:09;22.03;;;9.93;;
13943;SDS011;7044;53.286;8.534;2024-01-11T12:18:37;25.27;;;11.10;;
13943;SDS011;7044;53.286;8.534;2024-01-11T12:21:03;26.47;;;11.67;;
13943;SDS011;7044;53.286;8.534;2024-01-11T12:23:32;29.87;;;12.43;;
13943;SDS011;7044;53.286;8.534;2024-01-11T12:26:00;21.70;;;11.20;;
13943;SDS011;7044;53.286;8.534;2024-01-11T12:28:30;24.03;;;10.60;;
13943;SDS011;7044;53.286;8.534;2024-01-11T12:30:58;18.40;;;10.47;;
13943;SDS011;7044;53.286;8.534;2024-01-11T12:33:25;23.70;;;11.17;;
13943;SDS011;7044;53.286;8.534;2024-01-11T12:35:53;20.83;;;10.00;;
13943;SDS011;7044;53.286;8.534;2024-01-11T12:38:20;21.73;;;9.93;;
13943;SDS011;7044;53.286;8.534;2024-01-11T12:40:48;23.23;;;11.37;;
13943;SDS011;7044;53.286;8.534;2024-01-11T12:43:16;26.90;;;10.17;;
13943;SDS011;7044;53.286;8.534;2024-01-11T12:45:43;22.93;;;10.70;;
13943;SDS011;7044;53.286;8.534;2024-01-11T12:48:10;21.83;;;11.00;;
13943;SDS011;7044;53.286;8.534;2024-01-11T12:50:39;24.40;;;12.20;;
13943;SDS011;7044;53.286;8.534;2024-01-11T12:53:07;20.53;;;9.90;;
13943;SDS011;7044;53.286;8.534;2024-01-11T12:55:34;23.23;;;11.03;;
13943;SDS011;7044;53.286;8.534;2024-01-11T12:58:06;22.33;;;12.80;;
13943;SDS011;7044;53.286;8.534;2024-01-11T13:00:34;24.73;;;12.40;;
13943;SDS011;7044;53.286;8.534;2024-01-11T13:03:02;20.60;;;12.23;;
13943;SDS011;7044;53.286;8.534;2024-01-11T13:05:30;25.10;;;12.90;;
13943;SDS011;7044;53.286;8.534;2024-01-11T13:08:00;26.20;;;11.53;;
13943;SDS011;7044;53.286;8.534;2024-01-11T13:10:28;23.03;;;11.23;;
13943;SDS011;7044;53.286;8.534;2024-01-11T13:15:25;24.33;;;12.20;;
13943;SDS011;7044;53.286;8.534;2024-01-11T13:17:54;21.40;;;11.67;;
13943;SDS011;7044;53.286;8.534;2024-01-11T13:20:21;21.30;;;12.47;;
13943;SDS011;7044;53.286;8.534;2024-01-11T13:22:47;24.87;;;10.50;;
13943;SDS011;7044;53.286;8.534;2024-01-11T13:25:16;19.93;;;11.17;;
13943;SDS011;7044;53.286;8.534;2024-01-11T13:27:43;19.57;;;10.00;;
13943;SDS011;7044;53.286;8.534;2024-01-11T13:30:10;18.47;;;10.40;;
13943;SDS011;7044;53.286;8.534;2024-01-11T13:32:40;18.73;;;9.30;;
13943;SDS011;7044;53.286;8.534;2024-01-11T13:35:07;18.50;;;8.93;;
13943;SDS011;7044;53.286;8.534;2024-01-11T13:37:34;21.20;;;10.67;;
13943;SDS011;7044;53.286;8.534;2024-01-11T13:40:01;18.13;;;8.73;;
13943;SDS011;7044;53.286;8.534;2024-01-11T13:42:28;18.23;;;9.33;;
13943;SDS011;7044;53.286;8.534;2024-01-11T13:44:55;15.50;;;8.20;;
13943;SDS011;7044;53.286;8.534;2024-01-11T13:47:22;17.77;;;8.80;;
13943;SDS011;7044;53.286;8.534;2024-01-11T13:49:50;17.37;;;9.00;;
13943;SDS011;7044;53.286;8.534;2024-01-11T13:52:17;17.77;;;8.90;;
13943;SDS011;7044;53.286;8.534;2024-01-11T13:54:44;18.57;;;9.90;;
13943;SDS011;7044;53.286;8.534;2024-01-11T13:57:11;19.70;;;9.27;;
13943;SDS011;7044;53.286;8.534;2024-01-11T13:59:38;17.83;;;9.30;;
13943;SDS011;7044;53.286;8.534;2024-01-11T14:02:05;19.07;;;9.40;;
13943;SDS011;7044;53.286;8.534;2024-01-11T14:04:32;15.37;;;9.53;;
13943;SDS011;7044;53.286;8.534;2024-01-11T14:07:00;19.67;;;10.43;;
13943;SDS011;7044;53.286;8.534;2024-01-11T14:09:28;18.03;;;9.07;;
13943;SDS011;7044;53.286;8.534;2024-01-11T14:11:55;14.73;;;9.60;;
13943;SDS011;7044;53.286;8.534;2024-01-11T14:14:22;18.40;;;9.13;;
13943;SDS011;7044;53.286;8.534;2024-01-11T14:16:49;20.03;;;10.83;;
13943;SDS011;7044;53.286;8.534;2024-01-11T14:19:16;20.13;;;10.47;;
13943;SDS011;7044;53.286;8.534;2024-01-11T14:21:43;26.20;;;12.53;;
13943;SDS011;7044;53.286;8.534;2024-01-11T14:24:11;31.30;;;14.83;;
13943;SDS011;7044;53.286;8.534;2024-01-11T14:26:38;20.77;;;11.17;;
13943;SDS011;7044;53.286;8.534;2024-01-11T14:29:05;27.87;;;12.97;;
13943;SDS011;7044;53.286;8.534;2024-01-11T14:31:32;17.50;;;9.37;;
13943;SDS011;7044;53.286;8.534;2024-01-11T14:33:58;13.57;;;7.87;;
13943;SDS011;7044;53.286;8.534;2024-01-11T14:36:25;15.63;;;8.57;;
13943;SDS011;7044;53.286;8.534;2024-01-11T14:38:52;18.03;;;8.97;;